Time;durP1;ratioP1;P1;durP2;ratioP2;P2;SDS_P1;SDS_P2;PMS_P1;PMS_P2;Temp;Humidity;BMP_temperature;BMP_pressure;BME280_temperature;BME280_humidity;BME280_pressure;Samples;Min_cycle;Max_cycle;Signal;HPM_P1;HPM_P2
2022/11/07 00:01:28;;;;;;;;;;;11.80;64.60;;;;;;5023397;28;87354;-36
2022/11/07 00:03:53;;;;;;;;;;;11.80;64.50;;;;;;5023001;28;87072;-36
2022/11/07 00:06:19;;;;;;;;;;;11.80;64.50;;;;;;5023213;28;87419;-36
2022/11/07 00:08:44;;;;;;;;;;;11.80;64.60;;;;;;5021719;28;90374;-36
2022/11/07 00:11:10;;;;;;;;;;;11.80;64.50;;;;;;5021888;28;87105;-36
2022/11/07 00:13:35;;;;;;;;;;;11.80;64.60;;;;;;5025150;28;88164;-36
2022/11/07 00:16:05;;;;;;;;;;;11.80;64.50;;;;;;5022987;28;87035;-36
2022/11/07 00:18:31;;;;;;;;;;;11.80;64.60;;;;;;5022320;28;89295;-36
2022/11/07 00:21:04;;;;;;;;;;;11.80;64.60;;;;;;5022584;28;87877;-36
2022/11/07 00:23:29;;;;;;;;;;;11.80;64.50;;;;;;5022750;28;87177;-36
2022/11/07 00:26:00;;;;;;;;;;;11.70;64.50;;;;;;5023334;28;87522;-36
2022/11/07 00:28:25;;;;;;;;;;;11.80;64.60;;;;;;5022548;28;88145;-36
2022/11/07 00:30:51;;;;;;;;;;;11.70;64.60;;;;;;5022873;28;87163;-36
2022/11/07 00:33:16;;;;;;;;;;;11.70;64.50;;;;;;5022129;28;88318;-36
2022/11/07 00:35:42;;;;;;;;;;;11.70;64.50;;;;;;5024859;28;87245;-36
2022/11/07 00:38:07;;;;;;;;;;;11.70;64.50;;;;;;5022623;28;87005;-36
2022/11/07 00:40:33;;;;;;;;;;;11.70;64.50;;;;;;5022042;28;89453;-36
2022/11/07 00:42:59;;;;;;;;;;;11.70;64.50;;;;;;5022579;28;87089;-36
2022/11/07 00:45:24;;;;;;;;;;;11.70;64.40;;;;;;5022661;28;87523;-36
2022/11/07 00:47:50;;;;;;;;;;;11.70;64.50;;;;;;5021664;28;87653;-36
2022/11/07 00:50:16;;;;;;;;;;;11.70;64.50;;;;;;5022635;28;86391;-36
2022/11/07 00:52:42;;;;;;;;;;;11.70;64.50;;;;;;5022304;28;87640;-36
2022/11/07 00:55:07;;;;;;;;;;;11.70;64.50;;;;;;5024909;28;87282;-36
2022/11/07 00:57:33;;;;;;;;;;;11.70;64.40;;;;;;5021547;28;87953;-36
2022/11/07 00:59:58;;;;;;;;;;;11.60;64.40;;;;;;5022150;28;88458;-36
2022/11/07 01:02:24;;;;;;;;;;;11.70;64.50;;;;;;5022458;28;87080;-36
2022/11/07 01:07:33;;;;;;;;;;;11.60;64.40;;;;;;5022535;28;87719;-36
2022/11/07 01:09:59;;;;;;;;;;;11.70;64.50;;;;;;5022395;28;87101;-36
2022/11/07 01:12:24;;;;;;;;;;;11.60;64.50;;;;;;5022280;28;87353;-36
2022/11/07 01:14:50;;;;;;;;;;;11.60;64.50;;;;;;5022433;28;86288;-36
2022/11/07 01:17:15;;;;;;;;;;;11.60;64.50;;;;;;5024831;28;87114;-36
2022/11/07 01:19:41;;;;;;;;;;;11.60;64.50;;;;;;5021791;28;88240;-36
2022/11/07 01:22:06;;;;;;;;;;;11.60;64.60;;;;;;5021387;28;88038;-36
2022/11/07 01:24:32;;;;;;;;;;;11.60;64.50;;;;;;5025423;28;89741;-36
2022/11/07 01:26:57;;;;;;;;;;;11.60;64.50;;;;;;5025321;28;88159;-36
2022/11/07 01:29:23;;;;;;;;;;;11.50;64.40;;;;;;5025440;28;87427;-36
2022/11/07 01:31:49;;;;;;;;;;;11.50;65.10;;;;;;5025205;28;88925;-36
2022/11/07 01:34:16;;;;;;;;;;;11.60;64.50;;;;;;5025036;28;87811;-36
2022/11/07 01:36:42;;;;;;;;;;;11.60;64.40;;;;;;5024969;28;87087;-36
2022/11/07 01:39:07;;;;;;;;;;;11.50;64.40;;;;;;5028349;28;87458;-36
2022/11/07 01:41:34;;;;;;;;;;;11.50;64.50;;;;;;5025291;28;87147;-36
2022/11/07 01:44:02;;;;;;;;;;;11.50;64.40;;;;;;5025291;28;86943;-36
2022/11/07 01:46:31;;;;;;;;;;;11.50;64.40;;;;;;5024114;28;88820;-36
2022/11/07 01:49:16;;;;;;;;;;;11.50;64.40;;;;;;5024854;28;87152;-36
2022/11/07 01:51:41;;;;;;;;;;;11.50;64.40;;;;;;5025183;28;87014;-36
2022/11/07 01:54:07;;;;;;;;;;;11.50;64.40;;;;;;5024813;28;88001;-36
2022/11/07 01:56:34;;;;;;;;;;;11.50;64.50;;;;;;5025024;28;87104;-36
2022/11/07 01:59:01;;;;;;;;;;;11.50;64.40;;;;;;5024946;28;87413;-36
2022/11/07 02:01:26;;;;;;;;;;;11.50;64.40;;;;;;5027551;28;88049;-36
2022/11/07 02:03:52;;;;;;;;;;;11.50;64.40;;;;;;5025514;28;87538;-36
2022/11/07 02:06:36;;;;;;;;;;;11.50;64.40;;;;;;5024565;28;87757;-36
2022/11/07 02:09:03;;;;;;;;;;;11.40;64.50;;;;;;5025066;28;87140;-36
2022/11/07 02:11:28;;;;;;;;;;;11.40;64.50;;;;;;5024197;28;88035;-36
2022/11/07 02:13:54;;;;;;;;;;;11.40;64.40;;;;;;5024683;28;87228;-36
2022/11/07 02:16:19;;;;;;;;;;;11.40;64.50;;;;;;5024727;28;87090;-36
2022/11/07 02:18:45;;;;;;;;;;;11.40;64.50;;;;;;5024748;28;87349;-36
2022/11/07 02:21:16;;;;;;;;;;;11.40;64.50;;;;;;5024449;28;88174;-36
2022/11/07 02:24:02;;;;;;;;;;;11.40;64.50;;;;;;5026116;28;87134;-36
2022/11/07 02:26:28;;;;;;;;;;;11.40;64.50;;;;;;5023874;28;89535;-36
2022/11/07 02:28:55;;;;;;;;;;;11.40;64.60;;;;;;5025310;28;86467;-36
2022/11/07 02:31:20;;;;;;;;;;;11.30;64.50;;;;;;5024612;28;87084;-36
2022/11/07 02:33:46;;;;;;;;;;;11.30;64.60;;;;;;5023413;28;88066;-36
2022/11/07 02:36:13;;;;;;;;;;;11.30;64.60;;;;;;5022941;28;88093;-36
2022/11/07 02:38:39;;;;;;;;;;;11.30;64.60;;;;;;5024452;28;88267;-36
2022/11/07 02:41:14;;;;;;;;;;;11.30;64.60;;;;;;5023885;28;89360;-36
2022/11/07 02:43:47;;;;;;;;;;;11.30;64.60;;;;;;5024222;28;87107;-36
2022/11/07 02:46:13;;;;;;;;;;;11.30;64.60;;;;;;5026752;28;87357;-36
2022/11/07 02:48:46;;;;;;;;;;;11.30;64.60;;;;;;5024255;28;87123;-36
2022/11/07 02:51:12;;;;;;;;;;;11.30;64.60;;;;;;5023948;28;87359;-36
2022/11/07 02:53:37;;;;;;;;;;;11.30;64.60;;;;;;5024461;28;87260;-36
2022/11/07 02:56:03;;;;;;;;;;;11.30;64.50;;;;;;5024362;28;87200;-36
2022/11/07 02:58:28;;;;;;;;;;;11.30;64.60;;;;;;5023663;28;89202;-36
2022/11/07 03:00:54;;;;;;;;;;;11.20;64.60;;;;;;5023228;28;89271;-36
2022/11/07 03:03:20;;;;;;;;;;;11.20;64.60;;;;;;5024169;28;87052;-36
2022/11/07 03:05:45;;;;;;;;;;;11.20;64.60;;;;;;5026517;28;87481;-36
2022/11/07 03:08:11;;;;;;;;;;;11.20;64.60;;;;;;5024070;28;87161;-36
2022/11/07 03:10:36;;;;;;;;;;;11.20;64.60;;;;;;5024195;28;87443;-37
2022/11/07 03:13:02;;;;;;;;;;;11.20;64.60;;;;;;5023667;28;88194;-36
2022/11/07 03:15:27;;;;;;;;;;;11.20;64.70;;;;;;5023806;28;87168;-36
2022/11/07 03:17:53;;;;;;;;;;;11.20;64.70;;;;;;5024276;28;86713;-36
2022/11/07 03:20:18;;;;;;;;;;;11.20;64.60;;;;;;5023172;28;88213;-36
2022/11/07 03:22:45;;;;;;;;;;;11.20;64.70;;;;;;5023701;28;87227;-36
2022/11/07 03:25:10;;;;;;;;;;;11.20;64.70;;;;;;5023062;28;87943;-36
2022/11/07 03:27:44;;;;;;;;;;;11.20;64.80;;;;;;5026406;28;87983;-36
2022/11/07 03:30:10;;;;;;;;;;;11.10;64.80;;;;;;5023795;28;87380;-36
2022/11/07 03:32:35;;;;;;;;;;;11.10;64.80;;;;;;5023172;28;88112;-36
2022/11/07 03:35:00;;;;;;;;;;;11.10;64.80;;;;;;5022929;28;87176;-36
2022/11/07 03:37:26;;;;;;;;;;;11.10;64.80;;;;;;5023717;28;87507;-36
2022/11/07 03:39:51;;;;;;;;;;;11.10;64.80;;;;;;5023094;28;88180;-36
2022/11/07 03:42:17;;;;;;;;;;;11.10;64.80;;;;;;5023918;28;86361;-36
2022/11/07 03:44:42;;;;;;;;;;;11.10;64.90;;;;;;5023520;28;86956;-36
2022/11/07 03:47:08;;;;;;;;;;;11.10;64.90;;;;;;5022955;28;88473;-36
2022/11/07 03:49:33;;;;;;;;;;;11.10;64.90;;;;;;5025538;28;88284;-36
2022/11/07 03:51:59;;;;;;;;;;;11.10;64.90;;;;;;5022967;28;88330;-36
2022/11/07 03:54:25;;;;;;;;;;;11.10;64.90;;;;;;5023364;28;87119;-37
2022/11/07 03:56:51;;;;;;;;;;;11.10;64.80;;;;;;5023089;28;89057;-36
2022/11/07 03:59:16;;;;;;;;;;;11.10;64.90;;;;;;5022793;28;87981;-36
2022/11/07 04:01:43;;;;;;;;;;;11.10;64.90;;;;;;5023210;28;87109;-36
2022/11/07 04:04:09;;;;;;;;;;;11.10;64.90;;;;;;5022854;28;89221;-36
2022/11/07 04:06:34;;;;;;;;;;;11.00;64.90;;;;;;5023246;28;87172;-36
2022/11/07 04:09:00;;;;;;;;;;;11.00;65.00;;;;;;5023086;28;87144;-36
2022/11/07 04:19:38;;;;;;;;;;;11.00;65.00;;;;;;5022519;28;87235;-36
2022/11/07 04:22:03;;;;;;;;;;;11.00;65.00;;;;;;5022967;28;86921;-36
2022/11/07 04:24:29;;;;;;;;;;;11.00;65.10;;;;;;5022926;28;88015;-36
2022/11/07 04:29:38;;;;;;;;;;;11.00;65.10;;;;;;5022912;28;87076;-36
2022/11/07 04:32:03;;;;;;;;;;;10.90;64.90;;;;;;5023233;28;87436;-36
2022/11/07 04:34:29;;;;;;;;;;;11.00;65.10;;;;;;5025217;28;87243;-36
2022/11/07 04:36:54;;;;;;;;;;;10.90;65.10;;;;;;5022597;28;86995;-36
2022/11/07 04:39:20;;;;;;;;;;;10.90;65.10;;;;;;5021561;28;89172;-36
2022/11/07 04:41:45;;;;;;;;;;;10.90;65.10;;;;;;5022659;28;87467;-36
2022/11/07 04:44:12;;;;;;;;;;;10.90;65.10;;;;;;5022638;28;87565;-36
2022/11/07 04:46:37;;;;;;;;;;;10.90;65.10;;;;;;5022228;28;88063;-36
2022/11/07 04:49:03;;;;;;;;;;;10.90;65.10;;;;;;5022503;28;87307;-36
2022/11/07 04:51:28;;;;;;;;;;;10.90;65.10;;;;;;5022498;28;87223;-36
2022/11/07 04:53:54;;;;;;;;;;;10.90;65.10;;;;;;5022171;28;88880;-36
2022/11/07 04:56:19;;;;;;;;;;;10.90;65.10;;;;;;5025791;28;86498;-36
2022/11/07 04:58:45;;;;;;;;;;;10.90;65.10;;;;;;5024531;28;87882;-36
2022/11/07 05:01:10;;;;;;;;;;;10.90;65.10;;;;;;5026176;28;87420;-36
2022/11/07 05:03:36;;;;;;;;;;;10.90;65.20;;;;;;5025470;28;88079;-36
2022/11/07 05:06:03;;;;;;;;;;;10.80;65.20;;;;;;5025598;28;88057;-36
2022/11/07 05:08:29;;;;;;;;;;;10.80;65.20;;;;;;5025622;28;86922;-36
2022/11/07 05:10:55;;;;;;;;;;;10.90;65.20;;;;;;5025766;28;87238;-36
2022/11/07 05:13:20;;;;;;;;;;;10.90;65.20;;;;;;5025216;28;87889;-36
2022/11/07 05:15:46;;;;;;;;;;;10.80;65.30;;;;;;5028666;28;87148;-36
2022/11/07 05:18:12;;;;;;;;;;;10.80;65.40;;;;;;5025523;28;88057;-36
2022/11/07 05:20:38;;;;;;;;;;;10.80;65.20;;;;;;5026356;28;86451;-36
2022/11/07 05:23:20;;;;;;;;;;;10.80;66.00;;;;;;5025602;28;86996;-36
2022/11/07 05:25:52;;;;;;;;;;;10.80;65.50;;;;;;5025027;28;89396;-36
2022/11/07 05:28:19;;;;;;;;;;;10.80;65.50;;;;;;5024898;28;88152;-36
2022/11/07 05:30:45;;;;;;;;;;;10.80;65.50;;;;;;5025656;28;88025;-36
2022/11/07 05:33:12;;;;;;;;;;;10.80;65.40;;;;;;5025187;28;89474;-36
2022/11/07 05:35:37;;;;;;;;;;;10.80;65.40;;;;;;5024911;28;87141;-36
2022/11/07 05:38:03;;;;;;;;;;;10.80;65.50;;;;;;5027916;28;87076;-36
2022/11/07 05:40:30;;;;;;;;;;;10.70;65.40;;;;;;5024864;28;87165;-36
2022/11/07 05:42:59;;;;;;;;;;;10.70;65.50;;;;;;5025292;28;87291;-36
2022/11/07 05:45:25;;;;;;;;;;;10.70;65.50;;;;;;5025390;28;87261;-36
2022/11/07 05:48:00;;;;;;;;;;;10.70;65.60;;;;;;5025187;28;87135;-36
2022/11/07 05:50:26;;;;;;;;;;;10.70;65.60;;;;;;5025065;28;88519;-36
2022/11/07 05:52:52;;;;;;;;;;;10.70;65.70;;;;;;5024071;28;89060;-36
2022/11/07 05:55:17;;;;;;;;;;;10.70;65.70;;;;;;5025216;28;87121;-36
2022/11/07 05:57:43;;;;;;;;;;;10.70;65.60;;;;;;5025055;28;89000;-36
2022/11/07 06:00:09;;;;;;;;;;;10.70;65.70;;;;;;5027481;28;88068;-36
2022/11/07 06:02:34;;;;;;;;;;;10.70;65.60;;;;;;5024894;28;89309;-36
2022/11/07 06:05:00;;;;;;;;;;;10.60;66.30;;;;;;5024699;28;87958;-36
2022/11/07 06:07:25;;;;;;;;;;;10.70;65.70;;;;;;5025020;28;87499;-36
2022/11/07 06:09:51;;;;;;;;;;;10.60;65.70;;;;;;5025266;28;87291;-36
2022/11/07 06:12:16;;;;;;;;;;;10.60;65.70;;;;;;5024636;28;88076;-36
2022/11/07 06:14:42;;;;;;;;;;;10.60;65.80;;;;;;5024972;28;87151;-36
2022/11/07 06:17:07;;;;;;;;;;;10.60;65.90;;;;;;5024149;28;88044;-36
2022/11/07 06:19:33;;;;;;;;;;;10.70;65.70;;;;;;5024381;28;87857;-36
2022/11/07 06:21:59;;;;;;;;;;;10.60;65.80;;;;;;5027862;28;87153;-36
2022/11/07 06:24:24;;;;;;;;;;;10.60;65.80;;;;;;5024047;28;88134;-36
2022/11/07 06:26:50;;;;;;;;;;;10.60;65.90;;;;;;5024518;28;87335;-36
2022/11/07 06:29:15;;;;;;;;;;;10.60;65.90;;;;;;5024893;28;87462;-36
2022/11/07 06:31:41;;;;;;;;;;;10.60;65.90;;;;;;5024396;28;87923;-36
2022/11/07 06:34:06;;;;;;;;;;;10.60;65.90;;;;;;5024942;28;86417;-36
2022/11/07 06:36:32;;;;;;;;;;;10.60;65.90;;;;;;5024186;28;87025;-36
2022/11/07 06:38:57;;;;;;;;;;;10.60;65.90;;;;;;5023831;28;87281;-36
2022/11/07 06:41:23;;;;;;;;;;;10.60;65.90;;;;;;5023864;28;88080;-36
2022/11/07 06:43:51;;;;;;;;;;;10.60;66.00;;;;;;5027106;28;88313;-36
2022/11/07 06:46:18;;;;;;;;;;;10.60;66.00;;;;;;5024435;28;87120;-36
2022/11/07 06:48:44;;;;;;;;;;;10.50;65.90;;;;;;5023979;28;87380;-36
2022/11/07 06:51:10;;;;;;;;;;;10.50;65.90;;;;;;5023780;28;88323;-36
2022/11/07 06:53:36;;;;;;;;;;;10.50;65.90;;;;;;5023773;28;87661;-36
2022/11/07 06:56:02;;;;;;;;;;;10.50;65.90;;;;;;5024336;28;87375;-36
2022/11/07 06:58:28;;;;;;;;;;;10.60;65.90;;;;;;5024255;28;87374;-36
2022/11/07 07:00:57;;;;;;;;;;;10.60;65.90;;;;;;5024107;28;87011;-36
2022/11/07 07:03:23;;;;;;;;;;;10.50;66.00;;;;;;5026477;28;89269;-36
2022/11/07 07:05:48;;;;;;;;;;;10.60;66.00;;;;;;5023443;28;88012;-36
2022/11/07 07:08:14;;;;;;;;;;;10.50;66.00;;;;;;5023817;28;88413;-36
2022/11/07 07:10:41;;;;;;;;;;;10.50;66.10;;;;;;5023600;28;87927;-36
2022/11/07 07:13:06;;;;;;;;;;;10.50;66.10;;;;;;5023885;28;87079;-36
2022/11/07 07:15:32;;;;;;;;;;;10.50;66.10;;;;;;5024156;28;86981;-36
2022/11/07 07:17:58;;;;;;;;;;;10.50;66.10;;;;;;5023534;28;87733;-36
2022/11/07 07:20:24;;;;;;;;;;;10.50;66.00;;;;;;5022933;28;87129;-36
2022/11/07 07:22:49;;;;;;;;;;;10.50;66.30;;;;;;5024128;28;86619;-36
2022/11/07 07:25:15;;;;;;;;;;;10.50;66.20;;;;;;5026457;28;88032;-36
2022/11/07 07:27:40;;;;;;;;;;;10.50;66.20;;;;;;5023579;28;87408;-36
2022/11/07 07:30:06;;;;;;;;;;;10.50;66.20;;;;;;5022741;28;89224;-36
2022/11/07 07:32:34;;;;;;;;;;;10.50;66.20;;;;;;5023703;28;87385;-36
2022/11/07 07:34:59;;;;;;;;;;;10.50;66.20;;;;;;5023493;28;87440;-36
2022/11/07 07:37:25;;;;;;;;;;;10.50;66.20;;;;;;5023154;28;87900;-36
2022/11/07 07:39:51;;;;;;;;;;;10.50;66.10;;;;;;5023369;28;87153;-36
2022/11/07 07:42:16;;;;;;;;;;;10.50;66.20;;;;;;5023370;28;87934;-36
2022/11/07 07:44:42;;;;;;;;;;;10.50;66.20;;;;;;5022879;28;87285;-36
2022/11/07 07:47:07;;;;;;;;;;;10.50;66.20;;;;;;5026819;28;86201;-36
2022/11/07 07:49:33;;;;;;;;;;;10.50;66.20;;;;;;5022891;28;87980;-36
2022/11/07 07:51:59;;;;;;;;;;;10.50;66.40;;;;;;5023503;28;87120;-36
2022/11/07 07:54:24;;;;;;;;;;;10.50;66.30;;;;;;5022682;28;88061;-36
2022/11/07 07:56:50;;;;;;;;;;;10.50;66.30;;;;;;5023045;28;88014;-36
2022/11/07 07:59:15;;;;;;;;;;;10.50;66.20;;;;;;5023252;28;87115;-36
2022/11/07 08:01:41;;;;;;;;;;;10.50;66.60;;;;;;5023280;28;86965;-36
2022/11/07 08:04:06;;;;;;;;;;;10.50;66.20;;;;;;5022820;28;88026;-36
2022/11/07 08:06:33;;;;;;;;;;;10.60;66.20;;;;;;5023276;28;87454;-36
2022/11/07 08:08:59;;;;;;;;;;;10.50;66.20;;;;;;5025378;28;87478;-36
2022/11/07 08:11:24;;;;;;;;;;;10.50;66.30;;;;;;5023699;28;86500;-36
2022/11/07 08:13:50;;;;;;;;;;;10.60;66.30;;;;;;5023030;28;87173;-36
2022/11/07 08:16:15;;;;;;;;;;;10.50;66.20;;;;;;5022822;28;87041;-36
2022/11/07 08:18:41;;;;;;;;;;;10.60;66.20;;;;;;5022209;28;87941;-36
2022/11/07 08:21:07;;;;;;;;;;;10.60;66.20;;;;;;5022886;28;87942;-36
2022/11/07 08:23:33;;;;;;;;;;;10.50;66.20;;;;;;5022311;28;88086;-36
2022/11/07 08:26:01;;;;;;;;;;;10.50;66.20;;;;;;5022949;28;87022;-36
2022/11/07 08:28:28;;;;;;;;;;;10.60;66.20;;;;;;5022842;28;87516;-36
2022/11/07 08:31:09;;;;;;;;;;;10.60;66.20;;;;;;5025566;28;88064;-36
2022/11/07 08:33:35;;;;;;;;;;;10.60;66.20;;;;;;5021404;28;88809;-36
2022/11/07 08:36:01;;;;;;;;;;;10.60;66.10;;;;;;5022294;28;87201;-36
2022/11/07 08:38:28;;;;;;;;;;;10.60;66.10;;;;;;5022716;28;87195;-36
2022/11/07 08:40:53;;;;;;;;;;;10.60;66.10;;;;;;5022779;28;87446;-36
2022/11/07 08:43:19;;;;;;;;;;;10.70;65.80;;;;;;5021698;28;88636;-36
2022/11/07 08:45:45;;;;;;;;;;;10.70;65.90;;;;;;5022460;28;87218;-36
2022/11/07 08:48:10;;;;;;;;;;;10.70;66.00;;;;;;5022366;28;88830;-36
2022/11/07 08:50:36;;;;;;;;;;;10.70;66.00;;;;;;5022201;28;88128;-36
2022/11/07 08:53:01;;;;;;;;;;;10.60;66.10;;;;;;5025221;28;87089;-36
2022/11/07 08:55:27;;;;;;;;;;;10.70;65.90;;;;;;5022248;28;87684;-37
2022/11/07 08:57:56;;;;;;;;;;;10.70;66.00;;;;;;5022466;28;87068;-36
2022/11/07 09:00:22;;;;;;;;;;;10.70;66.10;;;;;;5022629;28;87454;-36
2022/11/07 09:02:47;;;;;;;;;;;10.70;66.10;;;;;;5022207;28;88142;-36
2022/11/07 09:05:13;;;;;;;;;;;10.70;66.00;;;;;;5022300;28;87100;-36
2022/11/07 09:07:38;;;;;;;;;;;10.70;66.20;;;;;;5021789;28;88423;-36
2022/11/07 09:10:04;;;;;;;;;;;10.80;66.00;;;;;;5021784;28;89603;-36
2022/11/07 09:12:30;;;;;;;;;;;10.70;66.10;;;;;;5024944;28;87129;-36
2022/11/07 09:14:55;;;;;;;;;;;10.70;66.10;;;;;;5021970;28;88207;-36
2022/11/07 09:17:20;;;;;;;;;;;10.80;66.10;;;;;;5022348;28;87124;-36
2022/11/07 09:19:46;;;;;;;;;;;10.70;66.10;;;;;;5022112;28;87546;-36
2022/11/07 09:22:11;;;;;;;;;;;10.80;66.10;;;;;;5021706;28;88058;-36
2022/11/07 09:24:37;;;;;;;;;;;10.70;66.20;;;;;;5022726;28;86374;-36
2022/11/07 09:27:02;;;;;;;;;;;10.70;66.20;;;;;;5022138;28;87007;-36
2022/11/07 09:29:28;;;;;;;;;;;10.70;66.10;;;;;;5021704;28;88450;-36
2022/11/07 09:31:53;;;;;;;;;;;10.70;66.10;;;;;;5021436;28;88103;-36
2022/11/07 09:34:19;;;;;;;;;;;10.70;66.00;;;;;;5024653;28;88332;-36
2022/11/07 09:36:44;;;;;;;;;;;10.80;66.20;;;;;;5021585;28;86980;-36
2022/11/07 09:39:10;;;;;;;;;;;10.80;66.30;;;;;;5021879;28;87450;-36
2022/11/07 09:41:48;;;;;;;;;;;10.80;66.00;;;;;;5021631;28;87149;-36
2022/11/07 09:44:20;;;;;;;;;;;10.80;66.30;;;;;;5023248;28;87537;-36
2022/11/07 09:46:48;;;;;;;;;;;10.80;66.20;;;;;;5025307;28;87447;-36
2022/11/07 09:49:17;;;;;;;;;;;10.80;65.90;;;;;;5025144;28;87567;-36
2022/11/07 09:52:09;;;;;;;;;;;10.80;66.20;;;;;;5025135;28;87443;-36
2022/11/07 09:54:37;;;;;;;;;;;10.80;66.60;;;;;;5008435;28;87501;-36
2022/11/07 09:57:03;;;;;;;;;;;10.80;66.20;;;;;;5027006;28;88783;-36
2022/11/07 09:59:32;;;;;;;;;;;10.80;66.40;;;;;;5025176;28;87430;-36
2022/11/07 10:01:58;;;;;;;;;;;10.90;66.10;;;;;;5024581;28;88113;-36
2022/11/07 10:04:23;;;;;;;;;;;10.80;66.10;;;;;;5024928;28;87051;-36
2022/11/07 10:07:03;;;;;;;;;;;10.80;66.50;;;;;;5024835;28;88588;-36
2022/11/07 10:09:33;;;;;;;;;;;10.70;66.70;;;;;;5024763;28;87872;-36
2022/11/07 10:11:58;;;;;;;;;;;10.70;66.60;;;;;;5024722;28;87119;-36
2022/11/07 10:14:24;;;;;;;;;;;10.70;66.70;;;;;;5025205;28;87484;-36
2022/11/07 10:16:52;;;;;;;;;;;10.70;67.10;;;;;;5024475;28;87806;-36
2022/11/07 10:19:37;;;;;;;;;;;10.70;67.30;;;;;;5027762;28;87116;-36
2022/11/07 10:22:10;;;;;;;;;;;10.80;66.50;;;;;;5023858;28;89184;-36
2022/11/07 10:24:47;;;;;;;;;;;10.80;66.70;;;;;;5024643;28;87155;-36
2022/11/07 10:27:13;;;;;;;;;;;10.90;66.90;;;;;;5024739;28;87435;-36
2022/11/07 10:29:41;;;;;;;;;;;10.80;66.90;;;;;;5024303;28;87908;-36
2022/11/07 10:32:10;;;;;;;;;;;10.80;67.10;;;;;;5024703;28;87126;-36
2022/11/07 10:34:40;;;;;;;;;;;10.80;67.10;;;;;;5024257;28;87100;-36
2022/11/07 10:37:07;;;;;;;;;;;10.80;67.50;;;;;;5024236;28;87583;-36
2022/11/07 10:39:32;;;;;;;;;;;10.90;67.20;;;;;;5024701;28;86409;-36
2022/11/07 10:42:00;;;;;;;;;;;10.90;67.00;;;;;;5026945;28;86935;-36
2022/11/07 10:44:26;;;;;;;;;;;10.90;67.10;;;;;;5024321;28;87142;-36
2022/11/07 10:46:51;;;;;;;;;;;10.90;67.00;;;;;;5023866;28;87869;-36
2022/11/07 10:49:19;;;;;;;;;;;10.80;67.50;;;;;;5024019;28;88162;-36
2022/11/07 10:51:44;;;;;;;;;;;10.90;67.20;;;;;;5024476;28;87066;-36
2022/11/07 10:54:20;;;;;;;;;;;10.90;67.30;;;;;;5023973;28;87016;-36
2022/11/07 10:56:54;;;;;;;;;;;11.00;67.20;;;;;;5022681;28;89215;-36
2022/11/07 10:59:22;;;;;;;;;;;10.90;67.30;;;;;;5024038;28;86951;-36
2022/11/07 11:01:49;;;;;;;;;;;11.00;67.60;;;;;;5023886;28;88794;-36
2022/11/07 11:04:25;;;;;;;;;;;10.90;67.70;;;;;;5026952;28;87496;-36
2022/11/07 11:06:58;;;;;;;;;;;10.90;67.30;;;;;;5023784;28;87111;-36
2022/11/07 11:09:28;;;;;;;;;;;11.00;67.50;;;;;;5023366;28;87954;-36
2022/11/07 11:11:53;;;;;;;;;;;11.00;67.80;;;;;;5023119;28;88236;-36
2022/11/07 11:14:19;;;;;;;;;;;11.00;67.80;;;;;;5023917;28;88395;-36
2022/11/07 11:16:47;;;;;;;;;;;11.10;67.50;;;;;;5023336;28;89353;-36
2022/11/07 11:19:31;;;;;;;;;;;11.10;67.70;;;;;;5023687;28;87428;-36
2022/11/07 11:21:57;;;;;;;;;;;11.10;67.60;;;;;;5023997;28;87622;-36
2022/11/07 11:24:28;;;;;;;;;;;11.10;67.60;;;;;;5026391;28;88178;-36
2022/11/07 11:26:56;;;;;;;;;;;11.10;67.60;;;;;;5023773;28;87183;-36
2022/11/07 11:29:21;;;;;;;;;;;11.10;67.50;;;;;;5023777;28;87662;-36
2022/11/07 11:31:49;;;;;;;;;;;11.30;67.60;;;;;;5023571;28;87155;-36
2022/11/07 11:34:20;;;;;;;;;;;11.20;67.20;;;;;;5023732;28;86946;-36
2022/11/07 11:37:00;;;;;;;;;;;11.20;67.40;;;;;;5022223;28;88725;-37
2022/11/07 11:39:35;;;;;;;;;;;11.20;67.20;;;;;;5023687;28;87045;-36
2022/11/07 11:42:00;;;;;;;;;;;11.20;67.60;;;;;;5023474;28;87255;-36
2022/11/07 11:44:34;;;;;;;;;;;11.30;67.50;;;;;;5023078;28;87791;-36
2022/11/07 11:46:59;;;;;;;;;;;11.30;67.40;;;;;;5026525;28;87009;-36
2022/11/07 11:49:35;;;;;;;;;;;11.30;67.60;;;;;;5022818;28;88012;-36
2022/11/07 11:52:05;;;;;;;;;;;11.30;67.70;;;;;;5023499;28;87039;-36
2022/11/07 11:54:31;;;;;;;;;;;11.30;67.90;;;;;;5023634;28;87797;-36
2022/11/07 11:57:08;;;;;;;;;;;11.40;67.80;;;;;;5023062;28;88125;-36
2022/11/07 11:59:42;;;;;;;;;;;11.40;67.50;;;;;;5023062;28;87859;-36
2022/11/07 12:02:27;;;;;;;;;;;11.40;67.40;;;;;;5023014;28;87917;-36
2022/11/07 12:05:08;;;;;;;;;;;11.40;67.50;;;;;;5023076;28;87217;-36
2022/11/07 12:07:47;;;;;;;;;;;11.40;67.60;;;;;;5023009;28;87551;-36
2022/11/07 12:10:19;;;;;;;;;;;11.40;67.70;;;;;;5025526;28;87741;-36
2022/11/07 12:12:53;;;;;;;;;;;11.40;67.70;;;;;;5023117;28;87290;-36
2022/11/07 12:15:25;;;;;;;;;;;11.40;68.10;;;;;;5023082;28;87405;-36
2022/11/07 12:17:57;;;;;;;;;;;11.40;68.20;;;;;;5022197;28;89412;-36
2022/11/07 12:20:25;;;;;;;;;;;11.40;68.50;;;;;;5023050;28;86482;-36
2022/11/07 12:23:08;;;;;;;;;;;11.40;68.10;;;;;;5022926;28;87068;-36
2022/11/07 12:25:48;;;;;;;;;;;11.50;68.00;;;;;;5022748;28;88065;-36
2022/11/07 12:28:16;;;;;;;;;;;11.50;68.00;;;;;;5022025;28;88016;-36
2022/11/07 12:30:42;;;;;;;;;;;11.50;68.10;;;;;;5023004;28;88449;-36
2022/11/07 12:33:13;;;;;;;;;;;11.50;68.10;;;;;;5025422;28;88035;-36
2022/11/07 12:35:43;;;;;;;;;;;11.50;67.80;;;;;;5022301;28;87338;-36
2022/11/07 12:38:27;;;;;;;;;;;11.50;68.40;;;;;;5022177;28;89370;-36
2022/11/07 12:40:58;;;;;;;;;;;11.50;68.10;;;;;;5022769;28;87057;-36
2022/11/07 12:43:23;;;;;;;;;;;11.60;68.30;;;;;;5022485;28;88411;-36
2022/11/07 12:46:07;;;;;;;;;;;11.60;68.30;;;;;;5022844;28;87059;-36
2022/11/07 12:48:36;;;;;;;;;;;11.60;68.00;;;;;;5022774;28;87377;-36
2022/11/07 12:51:20;;;;;;;;;;;11.60;67.80;;;;;;5022080;28;87513;-36
2022/11/07 12:54:03;;;;;;;;;;;11.60;67.80;;;;;;5020084;28;90561;-36
2022/11/07 12:56:34;;;;;;;;;;;11.60;68.20;;;;;;5025351;28;86890;-36
2022/11/07 12:59:01;;;;;;;;;;;11.60;68.00;;;;;;5022048;28;88041;-36
2022/11/07 13:01:37;;;;;;;;;;;11.70;68.30;;;;;;5022316;28;87141;-36
2022/11/07 13:04:11;;;;;;;;;;;11.60;68.20;;;;;;5022551;28;87222;-36
2022/11/07 13:06:51;;;;;;;;;;;11.70;68.30;;;;;;5022019;28;88422;-37
2022/11/07 13:09:37;;;;;;;;;;;11.70;68.10;;;;;;5022202;28;87041;-36
2022/11/07 13:12:05;;;;;;;;;;;11.70;68.10;;;;;;5014226;28;88645;-36
2022/11/07 13:14:36;;;;;;;;;;;11.70;67.70;;;;;;5021750;28;87999;-36
2022/11/07 13:17:02;;;;;;;;;;;11.70;68.20;;;;;;5021813;28;87134;-36
2022/11/07 13:19:32;;;;;;;;;;;11.70;68.30;;;;;;5026185;28;88299;-37
2022/11/07 13:22:17;;;;;;;;;;;11.70;68.30;;;;;;5025603;28;86992;-36
2022/11/07 13:24:51;;;;;;;;;;;11.70;68.40;;;;;;5025662;28;87143;-36
2022/11/07 13:27:23;;;;;;;;;;;11.70;68.30;;;;;;5025040;28;89237;-36
2022/11/07 13:29:49;;;;;;;;;;;11.80;68.20;;;;;;5025877;28;87166;-36
2022/11/07 13:32:15;;;;;;;;;;;11.80;68.20;;;;;;5025623;28;87615;-36
2022/11/07 13:34:46;;;;;;;;;;;11.80;68.40;;;;;;5024703;28;89290;-36
2022/11/07 13:37:15;;;;;;;;;;;11.80;68.30;;;;;;5025380;28;86809;-36
2022/11/07 13:39:41;;;;;;;;;;;11.80;68.40;;;;;;5028099;28;88105;-36
2022/11/07 13:42:07;;;;;;;;;;;11.80;68.20;;;;;;5025373;28;87223;-36
2022/11/07 13:44:35;;;;;;;;;;;11.90;68.40;;;;;;5024562;28;87981;-36
2022/11/07 13:47:06;;;;;;;;;;;11.80;68.20;;;;;;5024843;28;89220;-36
2022/11/07 13:49:38;;;;;;;;;;;11.80;68.70;;;;;;5025058;28;87324;-36
2022/11/07 13:52:07;;;;;;;;;;;11.80;68.40;;;;;;5024958;28;88748;-36
2022/11/07 13:54:38;;;;;;;;;;;11.90;68.60;;;;;;5024776;28;89279;-36
2022/11/07 13:57:04;;;;;;;;;;;11.90;68.70;;;;;;5025214;28;87140;-36
2022/11/07 13:59:29;;;;;;;;;;;11.90;68.60;;;;;;5025067;28;87293;-36
2022/11/07 14:01:56;;;;;;;;;;;11.90;68.50;;;;;;5028185;28;87240;-36
2022/11/07 14:04:25;;;;;;;;;;;11.90;68.60;;;;;;5024812;28;87420;-36
2022/11/07 14:06:54;;;;;;;;;;;11.90;68.60;;;;;;5024627;28;87979;-36
2022/11/07 14:09:20;;;;;;;;;;;11.90;68.70;;;;;;5024231;28;88046;-36
2022/11/07 14:11:48;;;;;;;;;;;12.00;68.80;;;;;;5024770;28;89732;-36
2022/11/07 14:14:14;;;;;;;;;;;12.00;68.60;;;;;;5024632;28;88222;-36
2022/11/07 14:16:42;;;;;;;;;;;12.00;68.60;;;;;;5024729;28;87309;-36
2022/11/07 14:19:13;;;;;;;;;;;12.00;68.80;;;;;;5024852;28;87401;-36
2022/11/07 14:21:42;;;;;;;;;;;12.00;68.70;;;;;;5024431;28;88134;-36
2022/11/07 14:24:22;;;;;;;;;;;12.00;68.80;;;;;;5027575;28;87198;-36
2022/11/07 14:26:58;;;;;;;;;;;12.00;68.90;;;;;;5025149;28;87372;-36
2022/11/07 14:29:23;;;;;;;;;;;12.00;68.80;;;;;;5024257;28;87150;-36
2022/11/07 14:31:49;;;;;;;;;;;12.00;68.80;;;;;;5023838;28;87593;-36
2022/11/07 14:34:21;;;;;;;;;;;12.10;68.60;;;;;;5023501;28;89034;-36